Time;durP1;ratioP1;P1;durP2;ratioP2;P2;SDS_P1;SDS_P2;PMS_P1;PMS_P2;Temp;Humidity;BMP_temperature;BMP_pressure;BME280_temperature;BME280_humidity;BME280_pressure;Samples;Min_cycle;Max_cycle;Signal;HPM_P1;HPM_P2
2022/05/29 00:00:17;;;;;;;4.70;1.47;;;10.10;99.90;;;;;;5072534;28;20714;-74
2022/05/29 00:02:43;;;;;;;3.93;1.60;;;10.00;99.90;;;;;;5072434;28;20167;-73
2022/05/29 00:05:11;;;;;;;5.80;1.80;;;10.00;99.90;;;;;;5071234;28;20612;-74
2022/05/29 00:07:37;;;;;;;5.37;1.30;;;10.00;99.90;;;;;;5072325;28;20281;-73
2022/05/29 00:10:06;;;;;;;2.97;1.40;;;9.90;99.90;;;;;;5073009;28;20206;-73
2022/05/29 00:12:32;;;;;;;2.67;1.10;;;9.90;99.90;;;;;;5072346;28;20173;-73
2022/05/29 00:14:57;;;;;;;6.90;1.40;;;9.80;99.90;;;;;;5071103;28;20175;-73
2022/05/29 00:17:23;;;;;;;2.03;1.10;;;9.80;99.90;;;;;;5072730;28;20217;-73
2022/05/29 00:19:49;;;;;;;3.37;1.17;;;9.80;99.90;;;;;;5071084;28;20236;-73
2022/05/29 00:22:17;;;;;;;5.03;1.20;;;9.80;99.90;;;;;;5072357;28;20542;-73
2022/05/29 00:24:45;;;;;;;6.20;1.37;;;9.70;99.90;;;;;;5072339;28;20255;-72
2022/05/29 00:27:11;;;;;;;5.10;1.23;;;9.70;99.90;;;;;;5070881;28;20236;-74
2022/05/29 00:29:37;;;;;;;6.60;1.73;;;9.70;99.90;;;;;;5070947;28;20182;-74
2022/05/29 00:32:04;;;;;;;3.43;1.23;;;9.60;99.90;;;;;;5071018;28;20699;-73
2022/05/29 00:34:30;;;;;;;5.23;1.33;;;9.60;99.90;;;;;;5074205;28;20171;-74
2022/05/29 00:36:58;;;;;;;7.10;1.50;;;9.60;99.90;;;;;;5074881;28;20285;-74
2022/05/29 00:39:24;;;;;;;2.93;1.20;;;9.60;99.90;;;;;;5075183;28;20543;-74
2022/05/29 00:41:50;;;;;;;5.37;1.30;;;9.50;99.90;;;;;;5076212;28;20202;-74
2022/05/29 00:44:17;;;;;;;7.33;1.43;;;9.50;99.90;;;;;;5074725;28;20198;-73
2022/05/29 00:46:46;;;;;;;7.43;1.83;;;9.50;99.90;;;;;;5075868;28;20252;-73
2022/05/29 00:49:14;;;;;;;3.87;1.20;;;9.50;99.90;;;;;;5076175;28;20274;-75
2022/05/29 00:51:54;;;;;;;4.97;1.33;;;9.40;99.90;;;;;;5074647;28;20175;-74
2022/05/29 00:54:20;;;;;;;2.60;1.20;;;9.40;99.90;;;;;;5076102;28;20158;-72
2022/05/29 00:56:47;;;;;;;2.70;1.40;;;9.40;99.90;;;;;;5075787;28;20198;-73
2022/05/29 00:59:25;;;;;;;3.27;1.40;;;9.40;99.90;;;;;;5074462;28;20587;-73
2022/05/29 01:01:51;;;;;;;4.00;1.10;;;9.40;99.90;;;;;;5075757;28;20171;-73
2022/05/29 01:04:17;;;;;;;4.83;1.40;;;9.40;99.90;;;;;;5076207;28;20541;-75
2022/05/29 01:06:43;;;;;;;2.67;1.27;;;9.40;99.90;;;;;;5075682;28;20191;-73
2022/05/29 01:09:10;;;;;;;2.23;1.17;;;9.30;99.90;;;;;;5076028;28;20195;-74
2022/05/29 01:11:38;;;;;;;4.93;1.33;;;9.30;99.90;;;;;;5074601;28;20167;-74
2022/05/29 01:14:24;;;;;;;4.30;1.30;;;9.30;99.90;;;;;;5074333;28;20527;-74
2022/05/29 01:17:01;;;;;;;5.00;1.60;;;9.20;99.90;;;;;;5076106;28;20690;-73
2022/05/29 01:19:51;;;;;;;5.67;1.17;;;9.10;99.90;;;;;;5076022;28;20155;-73
2022/05/29 01:22:40;;;;;;;2.40;1.13;;;9.10;99.90;;;;;;5079677;28;20155;-75
2022/05/29 01:25:24;;;;;;;4.37;1.20;;;9.00;99.90;;;;;;5089723;28;20163;-75
2022/05/29 01:28:01;;;;;;;5.10;1.20;;;9.00;99.90;;;;;;5083164;28;20190;-75
2022/05/29 01:30:30;;;;;;;6.17;1.37;;;8.90;99.90;;;;;;5074683;28;20181;-72
2022/05/29 01:33:02;;;;;;;5.30;1.37;;;8.90;99.90;;;;;;5078957;28;20198;-73
2022/05/29 01:35:33;;;;;;;3.90;1.47;;;8.80;99.90;;;;;;5074554;28;20163;-76
2022/05/29 01:38:07;;;;;;;3.40;1.10;;;8.80;99.90;;;;;;5075686;28;20159;-75
2022/05/29 01:40:56;;;;;;;4.47;1.47;;;8.70;99.90;;;;;;5075357;28;20155;-75
2022/05/29 01:43:35;;;;;;;4.13;1.20;;;8.70;99.90;;;;;;5075123;28;20167;-72
2022/05/29 01:46:13;;;;;;;6.10;1.27;;;8.70;99.90;;;;;;5075224;28;20209;-75
2022/05/29 01:49:19;;;;;;;4.40;1.50;;;8.70;99.90;;;;;;5075111;28;20222;-75
2022/05/29 01:51:59;;;;;;;2.90;1.30;;;8.60;99.90;;;;;;5075093;28;20195;-73
2022/05/29 01:54:32;;;;;;;3.03;1.10;;;8.50;99.90;;;;;;5075356;28;20159;-75
2022/05/29 01:57:03;;;;;;;3.83;1.27;;;8.40;99.90;;;;;;5074887;28;20600;-75
2022/05/29 01:59:47;;;;;;;6.60;1.37;;;8.40;99.90;;;;;;5074727;28;20182;-75
2022/05/29 02:02:18;;;;;;;3.93;1.37;;;8.30;99.90;;;;;;5074968;28;20167;-73
2022/05/29 02:04:49;;;;;;;3.33;1.20;;;8.20;99.90;;;;;;5074754;28;20159;-72
2022/05/29 02:10:12;;;;;;;4.90;1.20;;;8.10;99.90;;;;;;5075134;28;20177;-73
2022/05/29 02:12:43;;;;;;;3.93;1.30;;;8.00;99.90;;;;;;5074840;28;20165;-74
2022/05/29 02:15:13;;;;;;;7.37;2.07;;;8.00;99.90;;;;;;5073389;28;20171;-74
2022/05/29 02:17:44;;;;;;;4.47;1.43;;;8.00;99.90;;;;;;5074369;28;20207;-74
2022/05/29 02:20:30;;;;;;;4.77;1.40;;;8.00;99.90;;;;;;5074779;28;20163;-74
2022/05/29 02:23:22;;;;;;;3.40;1.53;;;8.00;99.90;;;;;;5074033;28;20241;-73
2022/05/29 02:25:48;;;;;;;4.73;1.43;;;8.00;99.90;;;;;;5074243;28;20194;-74
2022/05/29 02:28:34;;;;;;;4.33;1.30;;;8.00;99.90;;;;;;5074376;28;20220;-73
2022/05/29 02:31:27;;;;;;;3.57;1.37;;;8.00;99.90;;;;;;5074463;28;20159;-73
2022/05/29 02:34:03;;;;;;;6.70;1.53;;;8.00;99.90;;;;;;5072814;28;20169;-73
2022/05/29 02:36:51;;;;;;;6.10;1.77;;;8.00;99.90;;;;;;5072584;28;20237;-73
2022/05/29 02:39:49;;;;;;;2.00;1.20;;;7.90;99.90;;;;;;5074292;28;20171;-73
2022/05/29 02:42:23;;;;;;;2.97;1.57;;;7.90;99.90;;;;;;5072647;28;20217;-73
2022/05/29 02:45:00;;;;;;;5.03;1.57;;;7.90;99.90;;;;;;5073804;28;20174;-73
2022/05/29 02:47:36;;;;;;;2.63;1.70;;;7.80;99.90;;;;;;5093767;22;20222;-72
2022/05/29 02:50:13;;;;;;;2.93;1.53;;;7.80;99.90;;;;;;5036073;28;20190;-73
2022/05/29 02:52:39;;;;;;;2.77;1.43;;;7.70;99.90;;;;;;5054028;28;20200;-72
2022/05/29 02:55:06;;;;;;;6.37;1.67;;;7.70;99.90;;;;;;5053878;28;20168;-71
2022/05/29 02:57:33;;;;;;;5.40;1.70;;;7.60;99.90;;;;;;5053175;28;20311;-72
2022/05/29 03:00:07;;;;;;;2.57;1.30;;;7.60;99.90;;;;;;5053793;28;20171;-72
2022/05/29 03:02:57;;;;;;;5.50;1.73;;;7.50;99.90;;;;;;5054048;28;20205;-72
2022/05/29 03:05:45;;;;;;;4.93;1.63;;;7.40;99.90;;;;;;5054229;28;20156;-72
2022/05/29 03:08:26;;;;;;;1.97;1.23;;;7.40;99.90;;;;;;5035610;28;20199;-72
2022/05/29 03:11:32;;;;;;;2.93;1.47;;;7.40;99.90;;;;;;5053917;28;20156;-72
2022/05/29 03:14:48;;;;;;;2.77;1.23;;;7.30;99.90;;;;;;5049794;28;20269;-72
2022/05/29 03:17:41;;;;;;;2.73;1.70;;;7.20;99.90;;;;;;5019553;28;20590;-72
2022/05/29 03:20:24;;;;;;;5.00;1.60;;;7.20;99.90;;;;;;4995746;28;20215;-72
2022/05/29 03:23:04;;;;;;;4.83;1.20;;;7.20;99.90;;;;;;5053742;28;20180;-72
2022/05/29 03:25:50;;;;;;;3.67;1.93;;;7.30;99.90;;;;;;5053699;28;20152;-72
2022/05/29 03:28:23;;;;;;;4.77;1.77;;;7.20;99.90;;;;;;5053495;28;20271;-72
2022/05/29 03:30:50;;;;;;;7.47;2.03;;;7.30;99.90;;;;;;5053558;28;20175;-72
2022/05/29 03:33:16;;;;;;;4.47;1.50;;;7.30;99.90;;;;;;5053142;28;20191;-72
2022/05/29 03:35:51;;;;;;;5.23;1.70;;;7.30;99.90;;;;;;5035246;28;20658;-72
2022/05/29 03:38:17;;;;;;;7.13;1.83;;;7.30;99.90;;;;;;5053145;28;20703;-72
2022/05/29 03:40:42;;;;;;;5.07;1.87;;;7.30;99.90;;;;;;5053312;28;20168;-72
2022/05/29 03:43:08;;;;;;;3.67;1.50;;;7.30;99.90;;;;;;5053436;28;20196;-72
2022/05/29 03:45:34;;;;;;;3.57;1.60;;;7.30;99.90;;;;;;5053123;28;20204;-72
2022/05/29 03:48:00;;;;;;;4.77;1.67;;;7.30;99.90;;;;;;5052452;28;20709;-71
2022/05/29 03:50:25;;;;;;;4.23;1.40;;;7.30;99.90;;;;;;5052273;28;20713;-72
2022/05/29 03:52:52;;;;;;;4.40;1.80;;;7.40;99.90;;;;;;5052414;28;20259;-72
2022/05/29 03:55:24;;;;;;;6.93;2.20;;;7.40;99.90;;;;;;5052679;28;20170;-72
2022/05/29 03:57:51;;;;;;;4.47;1.70;;;7.40;99.90;;;;;;5052046;28;20719;-72
2022/05/29 04:00:17;;;;;;;4.03;1.57;;;7.50;99.90;;;;;;5052042;28;20176;-72
2022/05/29 04:02:44;;;;;;;5.30;1.50;;;7.60;99.90;;;;;;5051958;28;20179;-72
2022/05/29 04:05:20;;;;;;;4.57;1.90;;;7.60;99.90;;;;;;5034076;28;20199;-72
2022/05/29 04:13:17;;;;;;;6.70;1.97;;;7.80;99.90;;;;;;5052277;28;20205;-72
2022/05/29 04:15:45;;;;;;;4.13;1.80;;;7.80;99.90;;;;;;5051893;28;20185;-72
2022/05/29 04:18:16;;;;;;;3.03;1.73;;;7.90;99.90;;;;;;5033716;28;20203;-72
2022/05/29 04:20:43;;;;;;;3.50;2.10;;;8.00;99.90;;;;;;5051745;28;20163;-72
2022/05/29 04:23:08;;;;;;;5.50;1.87;;;8.00;99.90;;;;;;5033792;28;20175;-72
2022/05/29 04:25:34;;;;;;;6.07;2.20;;;8.10;99.90;;;;;;5033796;28;20262;-72
2022/05/29 04:28:01;;;;;;;5.67;2.13;;;8.10;99.90;;;;;;5051677;28;20211;-72
2022/05/29 04:30:27;;;;;;;5.37;2.20;;;8.20;99.90;;;;;;5052101;28;20167;-72
2022/05/29 04:33:02;;;;;;;2.93;1.60;;;8.20;99.90;;;;;;5051516;28;20641;-72
2022/05/29 04:35:31;;;;;;;5.23;2.07;;;8.30;99.90;;;;;;5051607;28;20147;-72
2022/05/29 04:37:57;;;;;;;4.83;1.67;;;8.30;99.90;;;;;;5051488;28;20187;-72
2022/05/29 04:40:23;;;;;;;3.77;2.13;;;8.40;99.90;;;;;;5051729;28;20182;-72
2022/05/29 04:42:49;;;;;;;4.73;2.00;;;8.40;99.90;;;;;;5033619;28;20175;-72
2022/05/29 04:45:15;;;;;;;5.90;2.10;;;8.40;99.90;;;;;;5033581;28;20257;-72
2022/05/29 04:47:40;;;;;;;4.23;2.20;;;8.50;99.90;;;;;;5014837;28;1049032;-72
2022/05/29 04:50:07;;;;;;;3.63;2.13;;;8.50;99.90;;;;;;5052353;28;20637;-72
2022/05/29 04:52:34;;;;;;;2.77;1.73;;;8.60;99.90;;;;;;5052310;28;20211;-72
2022/05/29 04:55:00;;;;;;;4.07;2.00;;;8.60;99.90;;;;;;5052292;28;20205;-72
2022/05/29 04:57:26;;;;;;;5.43;2.23;;;8.70;99.90;;;;;;5052059;28;20249;-72
2022/05/29 04:59:51;;;;;;;7.30;2.03;;;8.70;99.90;;;;;;5052185;28;20681;-73
2022/05/29 05:02:17;;;;;;;6.20;1.97;;;8.80;99.90;;;;;;5034345;28;20190;-72
2022/05/29 05:04:43;;;;;;;5.77;1.80;;;8.80;99.90;;;;;;5052148;28;20599;-71
2022/05/29 05:07:08;;;;;;;3.27;1.80;;;8.90;99.90;;;;;;5052246;28;20176;-72
2022/05/29 05:09:34;;;;;;;4.20;2.07;;;8.90;99.90;;;;;;5052446;28;20255;-72
2022/05/29 05:12:00;;;;;;;6.77;2.70;;;8.90;99.90;;;;;;5052135;28;20182;-73
2022/05/29 05:14:26;;;;;;;5.70;3.00;;;9.00;99.90;;;;;;5034173;28;20214;-72
2022/05/29 05:16:55;;;;;;;4.37;3.10;;;9.00;99.90;;;;;;5034177;28;20183;-72
2022/05/29 05:19:21;;;;;;;4.37;2.93;;;9.10;99.90;;;;;;5051953;28;20245;-73
2022/05/29 05:21:48;;;;;;;6.37;3.30;;;9.10;99.90;;;;;;5055855;28;20702;-72
2022/05/29 05:24:14;;;;;;;9.47;3.37;;;9.10;99.90;;;;;;5056174;28;20517;-73
2022/05/29 05:26:40;;;;;;;5.43;3.73;;;9.20;99.90;;;;;;5055847;28;20179;-73
2022/05/29 05:29:06;;;;;;;5.60;3.33;;;9.20;99.90;;;;;;5038005;28;20286;-71
2022/05/29 05:31:31;;;;;;;11.43;4.23;;;9.20;99.90;;;;;;5055765;28;20723;-73
2022/05/29 05:33:57;;;;;;;7.67;4.27;;;9.20;99.90;;;;;;5055360;28;20180;-73
2022/05/29 05:36:22;;;;;;;11.57;4.07;;;9.30;99.90;;;;;;5055427;28;20178;-73
2022/05/29 05:38:49;;;;;;;7.07;4.27;;;9.30;99.90;;;;;;5055281;28;20677;-73
2022/05/29 05:41:15;;;;;;;9.73;4.33;;;9.30;99.90;;;;;;5055244;28;20168;-73
2022/05/29 05:43:41;;;;;;;8.20;3.93;;;9.40;99.90;;;;;;5055235;28;20176;-73
2022/05/29 05:46:11;;;;;;;6.47;3.67;;;9.40;99.90;;;;;;5037586;28;20178;-73
2022/05/29 05:48:38;;;;;;;10.63;3.87;;;9.50;99.90;;;;;;5037047;28;20561;-73
2022/05/29 05:51:04;;;;;;;6.30;3.83;;;9.50;99.90;;;;;;5055078;28;20487;-73
2022/05/29 05:53:30;;;;;;;5.10;3.93;;;9.60;99.90;;;;;;5037170;28;20195;-73
2022/05/29 05:55:55;;;;;;;9.20;3.80;;;9.60;99.90;;;;;;5037133;28;20175;-73
2022/05/29 05:58:21;;;;;;;9.40;4.83;;;9.60;99.90;;;;;;5055126;28;20195;-73
2022/05/29 06:00:48;;;;;;;12.73;4.33;;;9.60;99.90;;;;;;5055248;28;20536;-73
2022/05/29 06:03:14;;;;;;;14.33;3.97;;;9.60;99.90;;;;;;5054969;28;20203;-73
2022/05/29 06:05:41;;;;;;;9.27;3.83;;;9.70;99.90;;;;;;5036989;28;20175;-73
2022/05/29 06:08:06;;;;;;;10.67;4.60;;;9.70;99.90;;;;;;5054641;28;20294;-73
2022/05/29 06:10:32;;;;;;;8.80;3.30;;;9.60;99.90;;;;;;5054990;28;20209;-73
2022/05/29 06:13:02;;;;;;;5.93;3.60;;;9.70;99.90;;;;;;5054801;28;20228;-73
2022/05/29 06:15:28;;;;;;;8.73;4.33;;;9.80;99.90;;;;;;5036883;28;20184;-73
2022/05/29 06:17:54;;;;;;;5.83;3.47;;;9.80;99.90;;;;;;5055211;28;20723;-73
2022/05/29 06:20:20;;;;;;;8.00;4.07;;;9.80;99.90;;;;;;5038515;28;20171;-74
2022/05/29 06:22:45;;;;;;;11.60;3.93;;;9.80;99.90;;;;;;5038497;28;20516;-74
2022/05/29 06:25:11;;;;;;;7.60;4.13;;;9.90;99.90;;;;;;5054913;28;20171;-74
2022/05/29 06:27:39;;;;;;;9.53;4.80;;;10.00;99.90;;;;;;5055236;28;20231;-73
2022/05/29 06:30:07;;;;;;;8.20;4.33;;;10.00;99.90;;;;;;5055077;28;20172;-73
2022/05/29 06:32:33;;;;;;;9.97;4.30;;;9.90;99.90;;;;;;5053858;28;20507;-73
2022/05/29 06:34:59;;;;;;;8.87;4.47;;;9.90;99.90;;;;;;5036542;28;20174;-74
2022/05/29 06:37:25;;;;;;;7.87;4.27;;;10.00;99.90;;;;;;5036400;28;20566;-73
2022/05/29 06:39:50;;;;;;;6.27;4.10;;;9.90;99.90;;;;;;5054287;28;20168;-73
2022/05/29 06:42:16;;;;;;;7.23;4.73;;;10.00;99.90;;;;;;5054181;28;20263;-73
2022/05/29 06:44:41;;;;;;;10.50;5.23;;;10.00;99.90;;;;;;5054122;28;20172;-74
2022/05/29 06:47:07;;;;;;;7.27;4.83;;;10.10;99.90;;;;;;5036074;28;20218;-73
2022/05/29 06:49:34;;;;;;;12.20;5.60;;;10.00;99.90;;;;;;5054098;28;20183;-73
2022/05/29 06:52:00;;;;;;;11.37;5.13;;;10.00;99.90;;;;;;5036176;28;20202;-73
2022/05/29 06:54:26;;;;;;;9.73;5.33;;;10.00;99.90;;;;;;5054383;28;20171;-73
2022/05/29 06:56:52;;;;;;;10.93;4.73;;;10.10;99.90;;;;;;5054117;28;20171;-73
2022/05/29 06:59:17;;;;;;;11.23;4.93;;;10.10;99.90;;;;;;5053967;28;20195;-74
2022/05/29 07:07:14;;;;;;;8.87;4.67;;;10.10;99.90;;;;;;5054063;28;20281;-73
2022/05/29 07:09:40;;;;;;;8.17;5.00;;;10.20;99.90;;;;;;5053742;28;20217;-73
2022/05/29 07:12:08;;;;;;;7.53;4.57;;;10.20;99.90;;;;;;5036074;28;20274;-74
2022/05/29 07:14:50;;;;;;;10.83;5.03;;;10.30;99.90;;;;;;5035713;28;20178;-73
2022/05/29 07:17:16;;;;;;;11.13;5.17;;;10.40;99.90;;;;;;5054126;28;20166;-74
2022/05/29 07:19:42;;;;;;;10.30;5.53;;;10.40;99.90;;;;;;5053457;28;20717;-74
2022/05/29 07:22:08;;;;;;;8.87;4.80;;;10.40;99.90;;;;;;5035451;28;20256;-73
2022/05/29 07:24:35;;;;;;;13.77;4.67;;;10.50;99.90;;;;;;5036799;28;20179;-73
2022/05/29 07:27:01;;;;;;;8.80;5.00;;;10.50;99.90;;;;;;5053556;28;20546;-73
2022/05/29 07:29:27;;;;;;;6.47;3.93;;;10.60;99.90;;;;;;5053367;28;20191;-73
2022/05/29 07:31:54;;;;;;;9.30;4.50;;;10.60;99.90;;;;;;5056919;28;20191;-73
2022/05/29 07:34:20;;;;;;;9.20;4.20;;;10.60;99.90;;;;;;5053228;28;20645;-74
2022/05/29 07:36:46;;;;;;;9.37;4.23;;;10.70;99.90;;;;;;5053089;28;20171;-72
2022/05/29 07:39:13;;;;;;;10.63;4.27;;;10.70;99.90;;;;;;5053466;28;20191;-73
2022/05/29 07:44:23;;;;;;;5.80;3.33;;;10.60;99.90;;;;;;5053856;28;20170;-72
2022/05/29 07:46:48;;;;;;;10.47;3.70;;;10.70;99.90;;;;;;5035745;28;20602;-73
2022/05/29 07:49:14;;;;;;;8.27;4.13;;;10.70;99.90;;;;;;5053420;28;20215;-72
2022/05/29 07:51:39;;;;;;;6.37;3.80;;;10.80;99.90;;;;;;5053329;28;20178;-73
2022/05/29 07:54:05;;;;;;;10.40;3.83;;;10.90;99.90;;;;;;5053737;28;20168;-73
2022/05/29 07:56:31;;;;;;;11.03;4.07;;;11.00;99.90;;;;;;5053281;28;20187;-73
2022/05/29 07:58:56;;;;;;;7.17;3.50;;;11.10;99.90;;;;;;5035210;28;20249;-73
2022/05/29 08:01:22;;;;;;;10.60;4.07;;;11.20;99.90;;;;;;5053572;28;20207;-73
2022/05/29 08:03:48;;;;;;;6.87;3.73;;;11.40;99.90;;;;;;5053374;28;20206;-72
2022/05/29 08:06:14;;;;;;;8.13;3.57;;;11.50;99.90;;;;;;5035270;28;20182;-72
2022/05/29 08:08:40;;;;;;;6.70;3.37;;;11.60;99.90;;;;;;5035337;28;20222;-72
2022/05/29 08:11:06;;;;;;;11.40;3.77;;;11.60;99.90;;;;;;5035068;28;20266;-73
2022/05/29 08:13:35;;;;;;;7.23;3.30;;;11.50;99.90;;;;;;5053267;28;20254;-72
2022/05/29 08:16:01;;;;;;;7.87;3.60;;;11.40;99.90;;;;;;5035390;28;20321;-72
2022/05/29 08:18:27;;;;;;;7.83;2.90;;;11.50;99.90;;;;;;5053034;28;20203;-72
2022/05/29 08:20:52;;;;;;;7.60;2.83;;;11.60;99.90;;;;;;5053529;28;20179;-72
2022/05/29 08:23:18;;;;;;;8.37;3.10;;;11.80;99.90;;;;;;5053123;28;20179;-73
2022/05/29 08:30:37;;;;;;;8.30;2.90;;;12.30;99.90;;;;;;5053019;28;20687;-73
2022/05/29 08:31:27;;;;;;;9.37;2.63;;;12.50;99.90;;;;;;5052545;28;20228;-72
2022/05/29 08:33:52;;;;;;;10.83;5.27;;;12.70;93.10;;;;;;5034851;28;20557;-72
2022/05/29 08:36:24;;;;;;;11.63;5.03;;;12.70;99.90;;;;;;5052995;28;20174;-72
2022/05/29 08:38:52;;;;;;;8.67;4.30;;;12.70;99.90;;;;;;5052682;28;20273;-72
2022/05/29 08:41:40;;;;;;;8.17;3.83;;;12.70;99.90;;;;;;5052770;28;20259;-72
2022/05/29 08:44:20;;;;;;;8.20;2.50;;;12.60;1.00;;;;;;5052746;28;20168;-72
2022/05/29 08:46:51;;;;;;;7.97;2.20;;;12.50;99.90;;;;;;5034794;28;20188;-72
2022/05/29 08:49:22;;;;;;;7.83;1.93;;;12.60;1.00;;;;;;5053801;28;20207;-73
2022/05/29 08:51:56;;;;;;;6.30;2.47;;;12.60;1.00;;;;;;5052918;28;20175;-73
2022/05/29 08:54:30;;;;;;;4.17;2.23;;;12.70;39.70;;;;;;5034785;28;20179;-72
2022/05/29 08:57:37;;;;;;;5.60;2.10;;;12.60;1.00;;;;;;5056575;28;20256;-73
2022/05/29 09:00:18;;;;;;;6.03;2.20;;;12.40;1.00;;;;;;5034334;28;20188;-73
2022/05/29 09:03:02;;;;;;;5.00;1.57;;;12.30;1.00;;;;;;5056362;28;20167;-71
2022/05/29 09:05:42;;;;;;;4.13;1.50;;;12.00;99.90;;;;;;5056480;28;20683;-72
2022/05/29 09:08:16;;;;;;;4.33;1.93;;;12.10;1.00;;;;;;5056205;28;20203;-72
2022/05/29 09:10:46;;;;;;;4.67;1.60;;;12.20;99.90;;;;;;5056179;28;20665;-72
2022/05/29 09:13:24;;;;;;;6.77;2.90;;;12.30;99.90;;;;;;5056536;28;20243;-72
2022/05/29 09:15:57;;;;;;;2.17;1.43;;;12.30;22.20;;;;;;5056594;28;20156;-72
2022/05/29 09:18:37;;;;;;;4.13;1.83;;;12.30;99.90;;;;;;5038253;28;20237;-72
2022/05/29 09:21:10;;;;;;;3.23;1.50;;;12.30;99.90;;;;;;5038163;28;20640;-72
2022/05/29 09:23:56;;;;;;;5.80;2.10;;;12.40;99.90;;;;;;5038188;28;20172;-72
2022/05/29 09:26:22;;;;;;;6.30;2.30;;;12.50;1.00;;;;;;5038107;28;20171;-72
2022/05/29 09:28:49;;;;;;;5.73;2.30;;;12.60;1.00;;;;;;5055780;28;20230;-72
2022/05/29 09:31:20;;;;;;;5.43;2.20;;;12.80;99.90;;;;;;5055893;28;20172;-73
2022/05/29 09:33:46;;;;;;;5.10;1.70;;;13.00;99.90;;;;;;5055859;28;20182;-72
2022/05/29 09:36:23;;;;;;;6.10;1.70;;;13.10;99.90;;;;;;5056098;28;20355;-71
2022/05/29 09:38:55;;;;;;;4.67;1.80;;;13.20;1.00;;;;;;5037770;28;20281;-71
2022/05/29 09:41:29;;;;;;;5.50;1.70;;;13.20;1.00;;;;;;5037869;28;20557;-72
2022/05/29 09:44:17;;;;;;;3.27;1.10;;;13.40;99.90;;;;;;5055641;28;20182;-72
2022/05/29 09:46:47;;;;;;;2.00;1.10;;;13.30;83.00;;;;;;5055915;28;20175;-72
2022/05/29 09:49:42;;;;;;;3.83;1.50;;;13.20;1.00;;;;;;5037338;28;20262;-72
2022/05/29 09:52:27;;;;;;;2.43;1.40;;;13.00;99.90;;;;;;5055632;28;20152;-71
2022/05/29 09:54:57;;;;;;;4.13;1.17;;;13.00;1.00;;;;;;5055755;28;20160;-72
2022/05/29 09:57:29;;;;;;;5.60;1.57;;;13.10;99.90;;;;;;5037485;28;20196;-72
2022/05/29 10:00:09;;;;;;;5.13;1.40;;;13.10;99.90;;;;;;5055414;28;20244;-71
2022/05/29 10:02:39;;;;;;;2.57;1.40;;;12.90;99.90;;;;;;5037461;28;20178;-72
2022/05/29 10:05:08;;;;;;;4.27;1.30;;;12.80;1.00;;;;;;5037780;28;20203;-72
2022/05/29 10:07:44;;;;;;;2.00;0.93;;;12.90;11.30;;;;;;5053805;28;20666;-72
2022/05/29 10:10:25;;;;;;;3.10;1.10;;;12.90;1.00;;;;;;5055360;28;20186;-73
2022/05/29 10:12:52;;;;;;;2.57;1.10;;;12.80;99.90;;;;;;5037338;28;20171;-72
2022/05/29 10:15:26;;;;;;;2.20;0.87;;;12.60;99.90;;;;;;5055120;28;20541;-72
2022/05/29 10:17:53;;;;;;;2.03;0.87;;;12.40;99.90;;;;;;5037089;28;20290;-73
2022/05/29 10:20:30;;;;;;;0.80;0.70;;;12.30;99.90;;;;;;5037198;28;20203;-72
2022/05/29 10:22:57;;;;;;;1.97;0.80;;;12.00;99.90;;;;;;5055008;28;20156;-72
2022/05/29 10:25:27;;;;;;;1.43;0.90;;;11.90;99.90;;;;;;5055133;28;20176;-72
2022/05/29 10:27:57;;;;;;;2.10;0.80;;;12.00;99.90;;;;;;5036922;28;20207;-72
2022/05/29 10:30:41;;;;;;;5.47;0.90;;;12.10;99.90;;;;;;5055119;28;20168;-72
2022/05/29 10:33:09;;;;;;;1.60;0.80;;;11.90;96.90;;;;;;5055077;28;20517;-72
2022/05/29 10:35:41;;;;;;;1.90;0.60;;;11.90;99.90;;;;;;5054701;28;20248;-72
2022/05/29 10:38:19;;;;;;;1.07;0.80;;;12.10;99.90;;;;;;5036774;28;20203;-72
2022/05/29 10:40:47;;;;;;;2.77;0.90;;;12.20;99.90;;;;;;5054833;28;20716;-71
2022/05/29 10:43:32;;;;;;;1.63;0.70;;;12.10;99.90;;;;;;5054601;28;20183;-72
2022/05/29 10:46:11;;;;;;;0.87;0.60;;;12.00;1.00;;;;;;5054563;28;20533;-72
2022/05/29 10:48:39;;;;;;;1.90;0.70;;;12.00;1.00;;;;;;5036426;28;20218;-72
2022/05/29 10:51:21;;;;;;;3.03;0.70;;;12.10;99.90;;;;;;5054444;28;20172;-72
2022/05/29 10:54:11;;;;;;;1.40;0.83;;;12.20;1.00;;;;;;5054702;28;20174;-72
2022/05/29 10:57:27;;;;;;;3.10;0.70;;;12.10;1.00;;;;;;5054182;28;20210;-73
2022/05/29 11:00:14;;;;;;;2.60;0.80;;;12.20;1.00;;;;;;5011857;28;20657;-72
2022/05/29 11:03:23;;;;;;;3.97;1.00;;;12.50;99.90;;;;;;5054194;28;20163;-72
2022/05/29 11:06:12;;;;;;;2.33;1.00;;;12.80;1.00;;;;;;5054173;28;20201;-72
2022/05/29 11:09:05;;;;;;;3.57;1.20;;;13.00;99.90;;;;;;5054021;28;20253;-73
2022/05/29 11:11:37;;;;;;;2.70;0.80;;;13.10;99.90;;;;;;5054008;28;20160;-72
2022/05/29 11:14:14;;;;;;;2.07;0.90;;;13.20;99.90;;;;;;5036166;28;20229;-72
2022/05/29 11:16:55;;;;;;;1.73;0.90;;;13.50;99.90;;;;;;5054245;28;20610;-73
2022/05/29 11:19:45;;;;;;;3.60;1.27;;;13.60;99.90;;;;;;5053438;28;20269;-72
2022/05/29 11:22:11;;;;;;;3.30;1.30;;;13.70;59.10;;;;;;5054020;28;20191;-73
2022/05/29 11:25:04;;;;;;;2.17;1.30;;;13.80;99.90;;;;;;5035736;28;20207;-72
2022/05/29 11:28:05;;;;;;;2.33;0.90;;;13.70;1.00;;;;;;5053706;28;20195;-72
2022/05/29 11:31:03;;;;;;;3.17;1.10;;;13.60;1.00;;;;;;5053861;28;20147;-72
2022/05/29 11:33:37;;;;;;;4.97;1.03;;;13.60;99.90;;;;;;5053976;28;20498;-72
2022/05/29 11:36:33;;;;;;;4.10;1.00;;;13.70;1.00;;;;;;5053829;28;20159;-71
2022/05/29 11:39:03;;;;;;;2.93;1.20;;;13.80;1.00;;;;;;5053702;28;20195;-72
2022/05/29 11:41:43;;;;;;;2.60;0.97;;;13.90;1.00;;;;;;5053424;28;20176;-72
2022/05/29 11:44:36;;;;;;;3.13;1.33;;;13.90;99.90;;;;;;5035506;28;20648;-72
2022/05/29 11:53:26;;;;;;;5.10;1.20;;;14.00;99.90;;;;;;5053478;28;20574;-72
2022/05/29 11:55:56;;;;;;;4.20;0.97;;;14.00;99.90;;;;;;5053360;28;20247;-72
2022/05/29 11:58:50;;;;;;;6.13;1.00;;;14.10;99.90;;;;;;5053446;28;20653;-72
2022/05/29 12:01:23;;;;;;;2.40;0.90;;;14.20;27.30;;;;;;5022269;28;20198;-72
2022/05/29 12:04:14;;;;;;;2.13;0.80;;;14.30;1.00;;;;;;5035295;28;20177;-72
2022/05/29 12:06:43;;;;;;;2.17;0.97;;;14.30;1.00;;;;;;5053178;28;20256;-72
2022/05/29 12:09:16;;;;;;;3.87;1.30;;;14.30;1.00;;;;;;5053490;28;20716;-72
2022/05/29 12:11:47;;;;;;;2.47;1.00;;;14.50;1.00;;;;;;5035205;28;20245;-72
2022/05/29 12:14:24;;;;;;;2.57;1.20;;;14.50;1.00;;;;;;5053032;28;20626;-72
2022/05/29 12:17:07;;;;;;;4.13;1.30;;;14.60;1.00;;;;;;5035207;28;20155;-72
2022/05/29 12:19:47;;;;;;;1.97;1.10;;;14.50;99.90;;;;;;5053263;28;20163;-72
2022/05/29 12:22:17;;;;;;;8.63;1.17;;;14.60;51.40;;;;;;5035186;28;20167;-72
2022/05/29 12:24:46;;;;;;;2.37;1.33;;;14.70;1.00;;;;;;5053477;28;20163;-71
2022/05/29 12:27:20;;;;;;;4.30;1.13;;;14.90;1.00;;;;;;5034925;28;20192;-72
2022/05/29 12:29:53;;;;;;;4.43;1.37;;;15.00;1.00;;;;;;5053743;28;20214;-72
2022/05/29 12:32:31;;;;;;;2.13;1.00;;;15.30;99.90;;;;;;5057060;28;20347;-72
2022/05/29 12:35:13;;;;;;;3.33;1.70;;;15.40;1.00;;;;;;5057220;28;20254;-72
2022/05/29 12:38:22;;;;;;;3.17;1.20;;;15.50;99.90;;;;;;5038881;28;20241;-72
2022/05/29 12:41:09;;;;;;;1.30;0.90;;;15.70;99.90;;;;;;4959988;28;20182;-72
2022/05/29 12:44:17;;;;;;;4.17;1.37;;;15.70;67.60;;;;;;4960353;28;20532;-72
2022/05/29 12:46:57;;;;;;;4.17;1.20;;;15.60;23.50;;;;;;5032540;28;20268;-72
2022/05/29 12:49:47;;;;;;;4.50;1.30;;;15.70;99.90;;;;;;5056388;28;20265;-72
2022/05/29 12:52:19;;;;;;;2.80;1.20;;;15.70;1.00;;;;;;5057186;28;20172;-72
2022/05/29 12:55:04;;;;;;;5.90;1.30;;;15.80;99.90;;;;;;5056926;28;20156;-72
2022/05/29 12:57:39;;;;;;;4.10;1.00;;;15.90;99.90;;;;;;5038604;28;20617;-72
2022/05/29 13:00:41;;;;;;;3.80;1.43;;;16.00;99.90;;;;;;5056806;28;20186;-73
2022/05/29 13:03:31;;;;;;;3.50;1.30;;;16.00;1.00;;;;;;5056985;28;20152;-73
2022/05/29 13:06:27;;;;;;;3.47;1.20;;;15.90;1.00;;;;;;5038605;28;20160;-73
2022/05/29 13:09:39;;;;;;;3.73;1.37;;;15.70;99.90;;;;;;5056513;28;20563;-72
2022/05/29 13:12:15;;;;;;;1.80;1.10;;;15.60;99.90;;;;;;5056396;28;20155;-72
2022/05/29 13:14:54;;;;;;;1.47;0.90;;;15.50;99.90;;;;;;5038437;28;20175;-72
2022/05/29 13:17:27;;;;;;;1.60;0.97;;;15.20;99.90;;;;;;5056448;28;20171;-72
2022/05/29 13:19:59;;;;;;;3.73;1.03;;;15.10;9.80;;;;;;5038261;28;20180;-72
2022/05/29 13:22:46;;;;;;;3.03;1.43;;;14.80;99.90;;;;;;5038152;28;20171;-72
2022/05/29 13:25:13;;;;;;;2.67;1.23;;;14.70;1.00;;;;;;5038140;28;20172;-72
2022/05/29 13:27:39;;;;;;;5.17;1.80;;;14.70;32.10;;;;;;5055885;28;20218;-72
2022/05/29 13:30:08;;;;;;;5.00;1.23;;;14.50;1.00;;;;;;5038030;28;20544;-72
2022/05/29 13:32:34;;;;;;;5.20;1.63;;;14.50;1.00;;;;;;5055920;28;20214;-72
2022/05/29 13:35:03;;;;;;;3.57;1.30;;;14.50;99.90;;;;;;5056118;28;20174;-72
2022/05/29 13:37:31;;;;;;;4.47;1.40;;;14.40;1.00;;;;;;5055729;28;20669;-72
2022/05/29 13:40:06;;;;;;;4.03;1.60;;;14.50;1.00;;;;;;5055790;28;20254;-72
2022/05/29 13:42:39;;;;;;;4.23;1.50;;;14.60;99.90;;;;;;5055410;28;20169;-72
2022/05/29 13:45:23;;;;;;;2.40;1.13;;;14.80;21.50;;;;;;5056308;28;20629;-72
2022/05/29 13:48:06;;;;;;;3.23;1.20;;;14.90;18.80;;;;;;5055455;28;20195;-72
2022/05/29 13:50:40;;;;;;;2.30;0.70;;;15.10;1.00;;;;;;5055897;28;20183;-72